sensor_id;sensor_type;location;lat;lon;timestamp;pressure;altitude;pressure_sealevel;temperature;humidity
59194;BME280;44967;48.598;15.650;2023-02-28T00:01:20;99178.38;;;0.45;58.29
59194;BME280;44967;48.598;15.650;2023-02-28T00:03:45;99182.75;;;0.47;58.21
59194;BME280;44967;48.598;15.650;2023-02-28T00:06:11;99187.94;;;0.46;57.69
59194;BME280;44967;48.598;15.650;2023-02-28T00:08:38;99186.88;;;0.38;57.46
59194;BME280;44967;48.598;15.650;2023-02-28T00:11:08;99189.25;;;0.29;58.40
59194;BME280;44967;48.598;15.650;2023-02-28T00:13:35;99191.63;;;0.20;57.45
59194;BME280;44967;48.598;15.650;2023-02-28T00:16:08;99193.66;;;0.31;57.81
59194;BME280;44967;48.598;15.650;2023-02-28T00:18:35;99200.41;;;0.25;58.38
59194;BME280;44967;48.598;15.650;2023-02-28T00:21:01;99195.13;;;0.22;57.76
59194;BME280;44967;48.598;15.650;2023-02-28T00:23:27;99202.09;;;0.23;58.34
59194;BME280;44967;48.598;15.650;2023-02-28T00:25:53;99190.06;;;0.28;57.14
59194;BME280;44967;48.598;15.650;2023-02-28T00:28:20;99199.44;;;0.20;57.57
59194;BME280;44967;48.598;15.650;2023-02-28T00:30:46;99191.41;;;0.11;57.74
59194;BME280;44967;48.598;15.650;2023-02-28T00:33:12;99191.97;;;-0.01;57.92
59194;BME280;44967;48.598;15.650;2023-02-28T00:35:38;99191.91;;;-0.03;57.45
59194;BME280;44967;48.598;15.650;2023-02-28T00:38:04;99195.16;;;-0.11;57.78
59194;BME280;44967;48.598;15.650;2023-02-28T00:40:30;99200.28;;;-0.14;58.43
59194;BME280;44967;48.598;15.650;2023-02-28T00:42:55;99193.44;;;-0.12;58.76
59194;BME280;44967;48.598;15.650;2023-02-28T00:45:21;99197.03;;;-0.06;58.40
59194;BME280;44967;48.598;15.650;2023-02-28T00:47:47;99200.34;;;-0.11;58.95
59194;BME280;44967;48.598;15.650;2023-02-28T00:50:21;99195.28;;;-0.07;58.12
59194;BME280;44967;48.598;15.650;2023-02-28T00:52:47;99193.44;;;-0.12;58.62
59194;BME280;44967;48.598;15.650;2023-02-28T00:55:14;99190.78;;;-0.14;58.06
59194;BME280;44967;48.598;15.650;2023-02-28T00:57:40;99185.25;;;-0.26;58.28
59194;BME280;44967;48.598;15.650;2023-02-28T01:00:07;99181.81;;;-0.25;58.60
59194;BME280;44967;48.598;15.650;2023-02-28T01:02:33;99185.31;;;-0.23;58.63
59194;BME280;44967;48.598;15.650;2023-02-28T01:04:59;99196.78;;;-0.15;58.38
59194;BME280;44967;48.598;15.650;2023-02-28T01:07:24;99196.91;;;-0.10;57.24
59194;BME280;44967;48.598;15.650;2023-02-28T01:09:50;99191.59;;;-0.16;57.82
59194;BME280;44967;48.598;15.650;2023-02-28T01:12:16;99186.53;;;-0.10;58.82
59194;BME280;44967;48.598;15.650;2023-02-28T01:14:42;99191.41;;;-0.22;58.30
59194;BME280;44967;48.598;15.650;2023-02-28T01:17:08;99192.97;;;-0.29;57.52
59194;BME280;44967;48.598;15.650;2023-02-28T01:19:34;99193.47;;;-0.42;57.58
59194;BME280;44967;48.598;15.650;2023-02-28T01:22:04;99200.72;;;-0.30;58.04
59194;BME280;44967;48.598;15.650;2023-02-28T01:24:31;99189.69;;;-0.22;58.05
59194;BME280;44967;48.598;15.650;2023-02-28T01:26:56;99193.66;;;-0.36;58.10
59194;BME280;44967;48.598;15.650;2023-02-28T01:29:22;99188.03;;;-0.51;58.77
59194;BME280;44967;48.598;15.650;2023-02-28T01:31:47;99184.53;;;-0.53;59.13
59194;BME280;44967;48.598;15.650;2023-02-28T01:34:13;99192.88;;;-0.63;59.49
59194;BME280;44967;48.598;15.650;2023-02-28T01:36:39;99192.44;;;-0.78;60.53
59194;BME280;44967;48.598;15.650;2023-02-28T01:39:04;99191.56;;;-0.79;59.42
59194;BME280;44967;48.598;15.650;2023-02-28T01:41:33;99180.88;;;-0.91;59.73
59194;BME280;44967;48.598;15.650;2023-02-28T01:44:04;99185.09;;;-0.93;60.71
59194;BME280;44967;48.598;15.650;2023-02-28T01:46:35;99185.31;;;-0.87;60.00
59194;BME280;44967;48.598;15.650;2023-02-28T01:49:15;99183.69;;;-0.83;59.67
59194;BME280;44967;48.598;15.650;2023-02-28T01:51:54;99182.94;;;-0.79;58.94
59194;BME280;44967;48.598;15.650;2023-02-28T01:54:27;99175.25;;;-0.75;59.13
59194;BME280;44967;48.598;15.650;2023-02-28T01:57:01;99172.63;;;-0.76;59.83
59194;BME280;44967;48.598;15.650;2023-02-28T02:02:01;99175.44;;;-0.99;60.89
59194;BME280;44967;48.598;15.650;2023-02-28T02:04:34;99177.41;;;-0.90;59.57
59194;BME280;44967;48.598;15.650;2023-02-28T02:07:02;99177.53;;;-0.87;58.79
59194;BME280;44967;48.598;15.650;2023-02-28T02:09:29;99172.50;;;-0.81;59.88
59194;BME280;44967;48.598;15.650;2023-02-28T02:11:55;99180.34;;;-0.79;59.15
59194;BME280;44967;48.598;15.650;2023-02-28T02:14:32;99181.09;;;-0.82;58.95
59194;BME280;44967;48.598;15.650;2023-02-28T02:17:18;99178.69;;;-1.06;59.78
59194;BME280;44967;48.598;15.650;2023-02-28T02:36:42;99156.06;;;-1.11;59.78
59194;BME280;44967;48.598;15.650;2023-02-28T02:39:46;99168.81;;;-1.19;59.56
59194;BME280;44967;48.598;15.650;2023-02-28T02:42:17;99166.66;;;-1.32;60.07
59194;BME280;44967;48.598;15.650;2023-02-28T02:44:51;99168.09;;;-1.42;60.30
59194;BME280;44967;48.598;15.650;2023-02-28T02:47:20;99173.34;;;-1.40;60.51
59194;BME280;44967;48.598;15.650;2023-02-28T02:49:52;99169.34;;;-1.29;60.42
59194;BME280;44967;48.598;15.650;2023-02-28T02:52:23;99171.78;;;-1.35;61.10
59194;BME280;44967;48.598;15.650;2023-02-28T02:54:52;99171.66;;;-1.38;60.92
59194;BME280;44967;48.598;15.650;2023-02-28T02:57:24;99177.94;;;-1.30;60.20
59194;BME280;44967;48.598;15.650;2023-02-28T02:59:54;99169.34;;;-1.29;60.86
59194;BME280;44967;48.598;15.650;2023-02-28T03:02:20;99180.31;;;-1.37;60.76
59194;BME280;44967;48.598;15.650;2023-02-28T03:04:51;99181.91;;;-1.42;60.68
59194;BME280;44967;48.598;15.650;2023-02-28T03:07:18;99175.78;;;-1.45;61.14
59194;BME280;44967;48.598;15.650;2023-02-28T03:09:51;99184.44;;;-1.44;61.39
59194;BME280;44967;48.598;15.650;2023-02-28T03:12:18;99186.16;;;-1.45;60.48
59194;BME280;44967;48.598;15.650;2023-02-28T03:15:09;99180.38;;;-1.36;60.90
59194;BME280;44967;48.598;15.650;2023-02-28T03:17:58;99183.41;;;-1.49;61.84
59194;BME280;44967;48.598;15.650;2023-02-28T03:23:16;99182.13;;;-1.62;63.81
59194;BME280;44967;48.598;15.650;2023-02-28T03:26:01;99185.00;;;-1.54;62.76
59194;BME280;44967;48.598;15.650;2023-02-28T03:28:48;99184.00;;;-1.58;62.08
59194;BME280;44967;48.598;15.650;2023-02-28T03:31:23;99183.47;;;-1.48;61.60
59194;BME280;44967;48.598;15.650;2023-02-28T03:33:53;99182.41;;;-1.54;61.44
59194;BME280;44967;48.598;15.650;2023-02-28T03:36:24;99179.66;;;-1.59;61.50
59194;BME280;44967;48.598;15.650;2023-02-28T03:38:56;99182.03;;;-1.66;62.15
59194;BME280;44967;48.598;15.650;2023-02-28T03:41:27;99182.41;;;-1.54;62.14
59194;BME280;44967;48.598;15.650;2023-02-28T03:44:12;99178.69;;;-1.62;62.69
59194;BME280;44967;48.598;15.650;2023-02-28T03:46:46;99186.41;;;-1.64;62.21
59194;BME280;44967;48.598;15.650;2023-02-28T03:49:17;99181.16;;;-1.65;62.02
59194;BME280;44967;48.598;15.650;2023-02-28T03:51:46;99188.19;;;-1.61;62.14
59194;BME280;44967;48.598;15.650;2023-02-28T03:54:16;99180.09;;;-1.72;63.85
59194;BME280;44967;48.598;15.650;2023-02-28T03:56:54;99188.59;;;-1.76;63.20
59194;BME280;44967;48.598;15.650;2023-02-28T03:59:26;99185.13;;;-1.76;63.10
59194;BME280;44967;48.598;15.650;2023-02-28T04:01:54;99193.13;;;-1.70;62.42
59194;BME280;44967;48.598;15.650;2023-02-28T04:04:20;99189.59;;;-1.72;63.04
59194;BME280;44967;48.598;15.650;2023-02-28T04:06:50;99190.28;;;-1.78;62.72
59194;BME280;44967;48.598;15.650;2023-02-28T04:09:16;99192.00;;;-1.78;63.18
59194;BME280;44967;48.598;15.650;2023-02-28T04:11:49;99193.63;;;-1.80;62.97
59194;BME280;44967;48.598;15.650;2023-02-28T04:14:17;99196.63;;;-1.68;63.23
59194;BME280;44967;48.598;15.650;2023-02-28T04:16:42;99197.16;;;-1.78;63.21
59194;BME280;44967;48.598;15.650;2023-02-28T04:19:10;99202.28;;;-1.80;62.95
59194;BME280;44967;48.598;15.650;2023-02-28T04:21:37;99199.06;;;-1.73;62.73
59194;BME280;44967;48.598;15.650;2023-02-28T04:24:05;99195.66;;;-1.72;63.41
59194;BME280;44967;48.598;15.650;2023-02-28T04:26:36;99195.66;;;-1.72;63.30
59194;BME280;44967;48.598;15.650;2023-02-28T04:29:04;99192.88;;;-1.78;63.54
59194;BME280;44967;48.598;15.650;2023-02-28T04:31:30;99188.88;;;-1.94;63.83
59194;BME280;44967;48.598;15.650;2023-02-28T04:33:56;99186.91;;;-2.01;65.01
59194;BME280;44967;48.598;15.650;2023-02-28T04:36:23;99194.28;;;-1.87;64.24
59194;BME280;44967;48.598;15.650;2023-02-28T04:38:49;99193.47;;;-1.85;63.59
59194;BME280;44967;48.598;15.650;2023-02-28T04:41:15;99189.28;;;-1.81;62.97
59194;BME280;44967;48.598;15.650;2023-02-28T04:43:41;99184.47;;;-1.96;63.62
59194;BME280;44967;48.598;15.650;2023-02-28T04:46:08;99188.94;;;-1.92;64.40
59194;BME280;44967;48.598;15.650;2023-02-28T04:48:36;99184.41;;;-1.99;64.50
59194;BME280;44967;48.598;15.650;2023-02-28T04:51:05;99182.69;;;-1.99;64.51
59194;BME280;44967;48.598;15.650;2023-02-28T04:53:31;99181.25;;;-1.89;64.53
59194;BME280;44967;48.598;15.650;2023-02-28T04:55:57;99184.88;;;-1.84;64.19
59194;BME280;44967;48.598;15.650;2023-02-28T04:58:23;99190.56;;;-1.96;64.90
59194;BME280;44967;48.598;15.650;2023-02-28T05:00:51;99186.28;;;-1.94;64.86
59194;BME280;44967;48.598;15.650;2023-02-28T05:03:16;99186.28;;;-1.94;64.97
59194;BME280;44967;48.598;15.650;2023-02-28T05:05:42;99182.16;;;-1.88;64.58
59194;BME280;44967;48.598;15.650;2023-02-28T05:08:08;99174.59;;;-2.08;65.16
59194;BME280;44967;48.598;15.650;2023-02-28T05:10:35;99183.41;;;-2.03;65.50
59194;BME280;44967;48.598;15.650;2023-02-28T05:13:01;99178.81;;;-2.11;65.77
59194;BME280;44967;48.598;15.650;2023-02-28T05:15:27;99174.53;;;-2.09;65.78
59194;BME280;44967;48.598;15.650;2023-02-28T05:17:53;99187.88;;;-1.99;65.56
59194;BME280;44967;48.598;15.650;2023-02-28T05:20:18;99179.13;;;-2.02;65.69
59194;BME280;44967;48.598;15.650;2023-02-28T05:22:44;99179.28;;;-2.23;66.16
59194;BME280;44967;48.598;15.650;2023-02-28T05:25:20;99177.59;;;-2.21;66.84
59194;BME280;44967;48.598;15.650;2023-02-28T05:27:48;99181.38;;;-2.37;66.38
59194;BME280;44967;48.598;15.650;2023-02-28T05:30:14;99184.44;;;-2.23;66.28
59194;BME280;44967;48.598;15.650;2023-02-28T05:32:41;99179.59;;;-2.14;66.10
59194;BME280;44967;48.598;15.650;2023-02-28T05:35:11;99186.81;;;-2.04;65.66
59194;BME280;44967;48.598;15.650;2023-02-28T05:37:37;99183.50;;;-2.00;65.96
59194;BME280;44967;48.598;15.650;2023-02-28T05:40:04;99183.19;;;-2.09;65.77
59194;BME280;44967;48.598;15.650;2023-02-28T05:42:37;99190.22;;;-2.05;65.42
59194;BME280;44967;48.598;15.650;2023-02-28T05:45:04;99195.56;;;-2.00;65.79
59194;BME280;44967;48.598;15.650;2023-02-28T05:47:30;99191.09;;;-2.06;65.98
59194;BME280;44967;48.598;15.650;2023-02-28T05:49:56;99194.44;;;-2.08;66.23
59194;BME280;44967;48.598;15.650;2023-02-28T05:52:22;99204.94;;;-2.29;66.78
59194;BME280;44967;48.598;15.650;2023-02-28T05:54:49;99202.22;;;-2.33;67.74
59194;BME280;44967;48.598;15.650;2023-02-28T05:57:15;99208.84;;;-2.40;67.71
59194;BME280;44967;48.598;15.650;2023-02-28T05:59:40;99210.06;;;-2.30;67.29
59194;BME280;44967;48.598;15.650;2023-02-28T06:02:11;99211.13;;;-2.25;67.09
59194;BME280;44967;48.598;15.650;2023-02-28T06:04:37;99217.22;;;-2.23;66.58
59194;BME280;44967;48.598;15.650;2023-02-28T06:07:03;99214.78;;;-2.19;67.74
59194;BME280;44967;48.598;15.650;2023-02-28T06:09:29;99221.56;;;-2.22;67.45
59194;BME280;44967;48.598;15.650;2023-02-28T06:11:56;99217.28;;;-2.22;67.46
59194;BME280;44967;48.598;15.650;2023-02-28T06:14:22;99222.66;;;-2.16;67.38
59194;BME280;44967;48.598;15.650;2023-02-28T06:16:48;99218.00;;;-2.01;67.06
59194;BME280;44967;48.598;15.650;2023-02-28T06:19:14;99224.13;;;-1.99;66.03
59194;BME280;44967;48.598;15.650;2023-02-28T06:21:41;99227.72;;;-1.94;66.29
59194;BME280;44967;48.598;15.650;2023-02-28T06:24:07;99219.69;;;-2.01;66.52
59194;BME280;44967;48.598;15.650;2023-02-28T06:26:33;99226.72;;;-1.99;66.95
59194;BME280;44967;48.598;15.650;2023-02-28T06:28:59;99229.47;;;-1.94;67.08
59194;BME280;44967;48.598;15.650;2023-02-28T06:31:26;99232.41;;;-1.83;66.87
59194;BME280;44967;48.598;15.650;2023-02-28T06:33:52;99230.16;;;-1.73;66.31
59194;BME280;44967;48.598;15.650;2023-02-28T06:36:18;99234.91;;;-1.85;66.87
59194;BME280;44967;48.598;15.650;2023-02-28T06:38:44;99235.53;;;-1.67;66.74
59194;BME280;44967;48.598;15.650;2023-02-28T06:41:10;99235.31;;;-1.46;67.18
59194;BME280;44967;48.598;15.650;2023-02-28T06:43:39;99231.66;;;-1.54;66.51
59194;BME280;44967;48.598;15.650;2023-02-28T06:46:07;99236.22;;;-1.46;66.39
59194;BME280;44967;48.598;15.650;2023-02-28T06:48:33;99233.28;;;-1.29;66.61
59194;BME280;44967;48.598;15.650;2023-02-28T06:51:11;99240.69;;;-1.13;66.08
59194;BME280;44967;48.598;15.650;2023-02-28T06:53:38;99240.09;;;-1.05;66.00
59194;BME280;44967;48.598;15.650;2023-02-28T06:56:10;99237.06;;;-0.91;65.62
59194;BME280;44967;48.598;15.650;2023-02-28T06:58:36;99234.63;;;-0.85;65.54
59194;BME280;44967;48.598;15.650;2023-02-28T07:01:03;99238.25;;;-0.80;65.85
59194;BME280;44967;48.598;15.650;2023-02-28T07:03:29;99241.00;;;-0.74;65.50
59194;BME280;44967;48.598;15.650;2023-02-28T07:05:55;99233.97;;;-0.78;65.49
59194;BME280;44967;48.598;15.650;2023-02-28T07:08:23;99246.84;;;-0.81;65.55
59194;BME280;44967;48.598;15.650;2023-02-28T07:10:54;99248.56;;;-0.82;65.34
59194;BME280;44967;48.598;15.650;2023-02-28T07:13:20;99241.59;;;-0.83;65.73
59194;BME280;44967;48.598;15.650;2023-02-28T07:16:04;99246.09;;;-0.77;65.05
59194;BME280;44967;48.598;15.650;2023-02-28T07:18:30;99238.75;;;-0.62;64.60
59194;BME280;44967;48.598;15.650;2023-02-28T07:20:56;99235.72;;;-0.77;64.21
59194;BME280;44967;48.598;15.650;2023-02-28T07:23:22;99246.09;;;-0.77;65.01
59194;BME280;44967;48.598;15.650;2023-02-28T07:25:49;99244.34;;;-0.78;65.36
59194;BME280;44967;48.598;15.650;2023-02-28T07:28:15;99238.97;;;-0.84;65.06
59194;BME280;44967;48.598;15.650;2023-02-28T07:30:41;99246.09;;;-0.77;64.75
59194;BME280;44967;48.598;15.650;2023-02-28T07:33:07;99245.44;;;-0.70;64.98
59194;BME280;44967;48.598;15.650;2023-02-28T07:35:33;99238.06;;;-0.57;64.49
59194;BME280;44967;48.598;15.650;2023-02-28T07:37:59;99244.84;;;-0.62;64.35
59194;BME280;44967;48.598;15.650;2023-02-28T07:40:25;99242.72;;;-0.45;64.71
59194;BME280;44967;48.598;15.650;2023-02-28T07:42:50;99241.03;;;-0.43;64.11
59194;BME280;44967;48.598;15.650;2023-02-28T07:45:16;99240.03;;;-0.48;64.35
59194;BME280;44967;48.598;15.650;2023-02-28T07:47:43;99248.03;;;-0.40;64.50
59194;BME280;44967;48.598;15.650;2023-02-28T07:50:12;99246.56;;;-0.31;63.86
59194;BME280;44967;48.598;15.650;2023-02-28T07:52:39;99254.41;;;-0.29;63.63
59194;BME280;44967;48.598;15.650;2023-02-28T07:55:07;99247.44;;;-0.32;63.27
59194;BME280;44967;48.598;15.650;2023-02-28T07:57:33;99253.72;;;-0.22;63.88
59194;BME280;44967;48.598;15.650;2023-02-28T07:59:58;99250.56;;;-0.12;63.82
59194;BME280;44967;48.598;15.650;2023-02-28T08:02:25;99249.81;;;-0.07;63.24
59194;BME280;44967;48.598;15.650;2023-02-28T08:04:53;99251.59;;;-0.06;62.74
59194;BME280;44967;48.598;15.650;2023-02-28T08:07:19;99251.66;;;-0.03;63.08
59194;BME280;44967;48.598;15.650;2023-02-28T08:09:44;99246.53;;;0.00;63.33
59194;BME280;44967;48.598;15.650;2023-02-28T08:12:11;99259.66;;;0.04;63.26
59194;BME280;44967;48.598;15.650;2023-02-28T08:14:37;99251.19;;;0.12;62.97
59194;BME280;44967;48.598;15.650;2023-02-28T08:17:03;99251.63;;;0.29;63.58
59194;BME280;44967;48.598;15.650;2023-02-28T08:19:29;99253.66;;;0.40;62.76
59194;BME280;44967;48.598;15.650;2023-02-28T08:21:56;99247.56;;;0.40;62.66
59194;BME280;44967;48.598;15.650;2023-02-28T08:24:23;99260.50;;;0.37;62.72
59194;BME280;44967;48.598;15.650;2023-02-28T08:26:48;99261.44;;;0.40;62.64
59194;BME280;44967;48.598;15.650;2023-02-28T08:29:14;99258.38;;;0.55;62.18
59194;BME280;44967;48.598;15.650;2023-02-28T08:31:40;99265.47;;;0.62;62.38
59194;BME280;44967;48.598;15.650;2023-02-28T08:34:08;99271.56;;;0.63;62.46
59194;BME280;44967;48.598;15.650;2023-02-28T08:36:34;99267.25;;;0.65;63.05
59194;BME280;44967;48.598;15.650;2023-02-28T08:39:00;99265.84;;;0.77;62.27
59194;BME280;44967;48.598;15.650;2023-02-28T08:41:26;99269.78;;;0.98;62.24
59194;BME280;44967;48.598;15.650;2023-02-28T08:43:52;99267.94;;;0.93;62.50
59194;BME280;44967;48.598;15.650;2023-02-28T08:46:19;99269.06;;;1.05;61.40
59194;BME280;44967;48.598;15.650;2023-02-28T08:48:44;99275.25;;;1.10;61.65
59194;BME280;44967;48.598;15.650;2023-02-28T08:51:14;99273.72;;;1.18;62.16
59194;BME280;44967;48.598;15.650;2023-02-28T08:53:41;99281.47;;;1.16;61.77
59194;BME280;44967;48.598;15.650;2023-02-28T08:56:14;99277.22;;;1.20;61.67
59194;BME280;44967;48.598;15.650;2023-02-28T08:58:40;99275.66;;;1.28;60.86
59194;BME280;44967;48.598;15.650;2023-02-28T09:01:17;99278.53;;;1.40;61.38
59194;BME280;44967;48.598;15.650;2023-02-28T09:03:45;99289.94;;;1.47;60.50
59194;BME280;44967;48.598;15.650;2023-02-28T09:06:13;99277.94;;;1.53;60.81
59194;BME280;44967;48.598;15.650;2023-02-28T09:08:39;99284.31;;;1.67;60.63
59194;BME280;44967;48.598;15.650;2023-02-28T09:11:06;99279.00;;;1.61;60.17
59194;BME280;44967;48.598;15.650;2023-02-28T09:13:32;99286.34;;;1.82;60.29
59194;BME280;44967;48.598;15.650;2023-02-28T09:15:59;99285.41;;;1.78;60.82
59194;BME280;44967;48.598;15.650;2023-02-28T09:18:26;99281.06;;;1.79;60.73
59194;BME280;44967;48.598;15.650;2023-02-28T09:20:52;99281.31;;;1.91;59.60
59194;BME280;44967;48.598;15.650;2023-02-28T09:23:18;99275.59;;;2.09;59.74
59194;BME280;44967;48.598;15.650;2023-02-28T09:25:51;99273.66;;;1.99;59.54
59194;BME280;44967;48.598;15.650;2023-02-28T09:28:18;99280.72;;;2.06;59.15
59194;BME280;44967;48.598;15.650;2023-02-28T09:30:45;99271.38;;;2.15;59.30
59194;BME280;44967;48.598;15.650;2023-02-28T09:33:12;99273.25;;;2.24;58.52
59194;BME280;44967;48.598;15.650;2023-02-28T09:35:37;99275.22;;;2.35;58.42
59194;BME280;44967;48.598;15.650;2023-02-28T09:38:03;99283.22;;;2.46;58.15
59194;BME280;44967;48.598;15.650;2023-02-28T09:40:29;99291.16;;;2.52;58.09
59194;BME280;44967;48.598;15.650;2023-02-28T09:42:58;99283.22;;;2.46;58.22
59194;BME280;44967;48.598;15.650;2023-02-28T09:45:39;99285.09;;;2.55;57.84
59194;BME280;44967;48.598;15.650;2023-02-28T09:48:14;99287.00;;;2.63;58.19
59194;BME280;44967;48.598;15.650;2023-02-28T09:50:46;99288.13;;;2.80;57.85
59194;BME280;44967;48.598;15.650;2023-02-28T09:55:51;99275.38;;;2.99;57.43
59194;BME280;44967;48.598;15.650;2023-02-28T09:58:37;99271.94;;;3.00;56.69
59194;BME280;44967;48.598;15.650;2023-02-28T10:06:45;99279.19;;;3.20;56.22
59194;BME280;44967;48.598;15.650;2023-02-28T10:09:17;99282.78;;;3.27;55.83
59194;BME280;44967;48.598;15.650;2023-02-28T10:11:44;99275.81;;;3.29;55.46
59194;BME280;44967;48.598;15.650;2023-02-28T10:14:23;99273.28;;;3.33;55.39
59194;BME280;44967;48.598;15.650;2023-02-28T10:16:59;99277.66;;;3.36;55.21
59194;BME280;44967;48.598;15.650;2023-02-28T10:19:39;99276.13;;;3.50;55.38
59194;BME280;44967;48.598;15.650;2023-02-28T10:22:29;99265.53;;;3.41;53.96
59194;BME280;44967;48.598;15.650;2023-02-28T10:24:58;99265.69;;;3.52;55.13
59194;BME280;44967;48.598;15.650;2023-02-28T10:27:32;99266.63;;;3.55;54.69
59194;BME280;44967;48.598;15.650;2023-02-28T10:30:00;99261.34;;;3.51;54.82
59194;BME280;44967;48.598;15.650;2023-02-28T10:32:32;99263.34;;;3.73;54.47
59194;BME280;44967;48.598;15.650;2023-02-28T10:35:22;99256.09;;;3.51;54.15
59194;BME280;44967;48.598;15.650;2023-02-28T10:37:50;99261.34;;;3.52;54.66
59194;BME280;44967;48.598;15.650;2023-02-28T10:45:25;99249.03;;;4.19;54.49
59194;BME280;44967;48.598;15.650;2023-02-28T10:47:58;99244.84;;;4.36;53.21
59194;BME280;44967;48.598;15.650;2023-02-28T10:58:47;99234.44;;;4.44;53.34
59194;BME280;44967;48.598;15.650;2023-02-28T11:01:39;99238.09;;;4.61;52.90
59194;BME280;44967;48.598;15.650;2023-02-28T11:06:42;99232.16;;;4.82;51.40
59194;BME280;44967;48.598;15.650;2023-02-28T11:09:48;99226.28;;;5.22;51.50
59194;BME280;44967;48.598;15.650;2023-02-28T11:12:36;99217.66;;;5.38;50.83
59194;BME280;44967;48.598;15.650;2023-02-28T11:15:07;99216.94;;;5.74;49.00
59194;BME280;44967;48.598;15.650;2023-02-28T11:17:53;99220.53;;;5.99;48.80
59194;BME280;44967;48.598;15.650;2023-02-28T11:20:23;99221.44;;;6.10;48.50
59194;BME280;44967;48.598;15.650;2023-02-28T11:22:50;99219.66;;;5.94;48.20
59194;BME280;44967;48.598;15.650;2023-02-28T11:25:23;99213.53;;;5.95;48.24
59194;BME280;44967;48.598;15.650;2023-02-28T11:27:52;99215.28;;;5.99;47.67
59194;BME280;44967;48.598;15.650;2023-02-28T11:32:54;99212.44;;;5.44;48.44
59194;BME280;44967;48.598;15.650;2023-02-28T11:37:51;99208.81;;;5.19;49.47
59194;BME280;44967;48.598;15.650;2023-02-28T11:40:46;99199.31;;;5.37;48.02
59194;BME280;44967;48.598;15.650;2023-02-28T11:46:22;99196.75;;;5.49;48.50
59194;BME280;44967;48.598;15.650;2023-02-28T11:52:02;99185.38;;;5.51;48.75
59194;BME280;44967;48.598;15.650;2023-02-28T11:55:11;99188.88;;;5.53;49.06
59194;BME280;44967;48.598;15.650;2023-02-28T12:06:25;99190.50;;;5.21;46.88
59194;BME280;44967;48.598;15.650;2023-02-28T12:08:53;99184.53;;;5.61;48.33
59194;BME280;44967;48.598;15.650;2023-02-28T12:23:25;99170.63;;;5.82;46.14
59194;BME280;44967;48.598;15.650;2023-02-28T12:26:20;99173.34;;;6.00;46.04
59194;BME280;44967;48.598;15.650;2023-02-28T12:28:32;99166.34;;;6.13;46.34
59194;BME280;44967;48.598;15.650;2023-02-28T12:31:18;99175.09;;;6.18;46.23
59194;BME280;44967;48.598;15.650;2023-02-28T12:33:50;99169.81;;;6.09;46.15
59194;BME280;44967;48.598;15.650;2023-02-28T12:36:19;99179.44;;;6.05;46.00
59194;BME280;44967;48.598;15.650;2023-02-28T12:39:02;99165.47;;;6.00;45.69
59194;BME280;44967;48.598;15.650;2023-02-28T12:41:39;99163.69;;;5.98;46.59
59194;BME280;44967;48.598;15.650;2023-02-28T12:44:17;99157.56;;;5.97;45.84
59194;BME280;44967;48.598;15.650;2023-02-28T12:46:58;99162.81;;;5.90;46.27
59194;BME280;44967;48.598;15.650;2023-02-28T12:49:33;99151.41;;;5.83;45.19
59194;BME280;44967;48.598;15.650;2023-02-28T12:52:00;99155.84;;;6.05;46.36
59194;BME280;44967;48.598;15.650;2023-02-28T12:54:59;99154.97;;;6.14;46.27
59194;BME280;44967;48.598;15.650;2023-02-28T12:57:49;99159.34;;;6.21;46.38
59194;BME280;44967;48.598;15.650;2023-02-28T13:00:25;99157.63;;;6.38;46.46
59194;BME280;44967;48.598;15.650;2023-02-28T13:03:21;99155.84;;;6.21;45.38
59194;BME280;44967;48.598;15.650;2023-02-28T13:06:29;99154.09;;;6.36;45.01
59194;BME280;44967;48.598;15.650;2023-02-28T13:09:08;99154.97;;;6.26;46.00
59194;BME280;44967;48.598;15.650;2023-02-28T13:11:45;99154.09;;;6.45;46.46
59194;BME280;44967;48.598;15.650;2023-02-28T13:19:25;99158.47;;;6.37;45.14
59194;BME280;44967;48.598;15.650;2023-02-28T13:21:52;99154.09;;;6.09;44.57
59194;BME280;44967;48.598;15.650;2023-02-28T13:29:36;99149.72;;;6.22;45.56
59194;BME280;44967;48.598;15.650;2023-02-28T13:34:28;99155.88;;;6.24;45.46
59194;BME280;44967;48.598;15.650;2023-02-28T13:39:49;99155.00;;;6.47;45.88
59194;BME280;44967;48.598;15.650;2023-02-28T13:47:29;99149.72;;;6.05;44.70
59194;BME280;44967;48.598;15.650;2023-02-28T14:06:55;99130.50;;;6.27;45.84
59194;BME280;44967;48.598;15.650;2023-02-28T14:11:52;99134.84;;;6.49;46.03
59194;BME280;44967;48.598;15.650;2023-02-28T14:17:07;99125.22;;;6.41;45.40
59194;BME280;44967;48.598;15.650;2023-02-28T14:19:38;99134.88;;;6.31;45.41
59194;BME280;44967;48.598;15.650;2023-02-28T14:25:15;99139.22;;;5.94;46.54
59194;BME280;44967;48.598;15.650;2023-02-28T14:30:29;99154.00;;;5.79;46.90
59194;BME280;44967;48.598;15.650;2023-02-28T14:36:16;99148.69;;;5.57;47.06
59194;BME280;44967;48.598;15.650;2023-02-28T14:38:52;99155.69;;;5.55;46.99
59194;BME280;44967;48.598;15.650;2023-02-28T14:41:39;99154.84;;;5.56;47.25
59194;BME280;44967;48.598;15.650;2023-02-28T14:44:23;99150.41;;;5.43;47.66
59194;BME280;44967;48.598;15.650;2023-02-28T14:46:57;99160.84;;;5.34;47.98
59194;BME280;44967;48.598;15.650;2023-02-28T14:49:26;99150.34;;;5.25;47.78
59194;BME280;44967;48.598;15.650;2023-02-28T14:54:31;99149.41;;;5.14;48.29
59194;BME280;44967;48.598;15.650;2023-02-28T14:56:57;99163.41;;;5.16;47.95
59194;BME280;44967;48.598;15.650;2023-02-28T14:59:28;99157.19;;;4.99;47.70
59194;BME280;44967;48.598;15.650;2023-02-28T15:02:18;99151.16;;;5.15;48.19
59194;BME280;44967;48.598;15.650;2023-02-28T15:04:53;99153.72;;;5.01;47.73
59194;BME280;44967;48.598;15.650;2023-02-28T15:07:19;99159.78;;;4.96;48.35
59194;BME280;44967;48.598;15.650;2023-02-28T15:09:44;99153.66;;;4.91;48.32
59194;BME280;44967;48.598;15.650;2023-02-28T15:12:14;99155.50;;;5.05;47.81
59194;BME280;44967;48.598;15.650;2023-02-28T15:14:43;99161.59;;;5.01;47.70
59194;BME280;44967;48.598;15.650;2023-02-28T15:17:19;99157.13;;;4.88;48.14
59194;BME280;44967;48.598;15.650;2023-02-28T15:19:48;99158.94;;;4.94;48.66
59194;BME280;44967;48.598;15.650;2023-02-28T15:22:20;99160.50;;;4.69;48.96
59194;BME280;44967;48.598;15.650;2023-02-28T15:24:50;99160.56;;;4.77;48.90